Observation data for Clarendon on 12/08/2018      Previous  Date       Current Mesonet Observations  Soil Data  Daily Summary Page  Observations in Plain Language
KCES 080600Z 05008KT M01/M03 A3033 RMK A01 T10071031  RH  084%=      5-min Rain = 0
KCES 080605Z 05008KT M01/M03 A3032 RMK A01 T10071030  RH  085%=      5-min Rain = 0
KCES 080610Z 05009KT M01/M03 A3032 RMK A01 T10071030  RH  085%=      5-min Rain = 0
KCES 080615Z 04010KT M01/M03 A3032 RMK A01 T10081030  RH  086%=      5-min Rain = 0
KCES 080620Z 04010KT M01/M03 A3032 RMK A01 T10081030  RH  086%=      5-min Rain = 0
KCES 080625Z 04008KT M01/M03 A3032 RMK A01 T10091029  RH  087%=      5-min Rain = 0
KCES 080630Z 05008KT M01/M03 A3032 RMK A01 T10091029  RH  087%=      5-min Rain = 0
KCES 080635Z 05008KT M01/M03 A3031 RMK A01 T10091029  RH  087%=      5-min Rain = 0
KCES 080640Z 03010KT M01/M03 A3031 RMK A01 T10091029  RH  086%=      5-min Rain = 0
KCES 080645Z 03009KT M01/M03 A3031 RMK A01 T10091030  RH  086%=      5-min Rain = 0
KCES 080650Z 03008KT M01/M03 A3031 RMK A01 T10091031  RH  085%=      5-min Rain = 0
KCES 080655Z 02008KT M01/M03 A3031 RMK A01 T10081031  RH  085%=      5-min Rain = 0
KCES 080700Z 02008KT M01/M03 A3031 RMK A01 T10091033  RH  084%=      5-min Rain = 0
KCES 080705Z 04010KT M01/M04 A3031 RMK A01 T10091035  RH  083%=      5-min Rain = 0
KCES 080710Z 02010KT M01/M04 A3031 RMK A01 T10091036  RH  083%=      5-min Rain = 0
KCES 080715Z 02009KT M01/M04 A3031 RMK A01 T10091037  RH  082%=      5-min Rain = 0
KCES 080720Z 02008KT M01/M04 A3031 RMK A01 T10091038  RH  081%=      5-min Rain = 0
KCES 080725Z 02007KT M01/M04 A3031 RMK A01 T10101039  RH  081%=      5-min Rain = 0
KCES 080730Z 02008KT M01/M04 A3031 RMK A01 T10101041  RH  080%=      5-min Rain = 0
KCES 080735Z 01008KT M01/M04 A3031 RMK A01 T10101044  RH  078%=      5-min Rain = 0
KCES 080740Z 02008KT M01/M05 A3031 RMK A01 T10101046  RH  077%=      5-min Rain = 0
KCES 080745Z 01008KT M01/M05 A3031 RMK A01 T10111047  RH  076%=      5-min Rain = 0
KCES 080750Z 02008KT M01/M05 A3031 RMK A01 T10101047  RH  077%=      5-min Rain = 0
KCES 080755Z 02008KT M01/M04 A3031 RMK A01 T10111044  RH  079%=      5-min Rain = 0
KCES 080800Z 02009KT M01/M04 A3031 RMK A01 T10111042  RH  080%=      5-min Rain = 0
KCES 080805Z 02010KT M01/M04 A303 RMK A01 T10101043  RH  079%=      5-min Rain = 0
KCES 080810Z 02010KT M01/M05 A303 RMK A01 T10101045  RH  078%=      5-min Rain = 0
KCES 080815Z 02009KT M01/M05 A303 RMK A01 T10101047  RH  076%=      5-min Rain = 0
KCES 080820Z 03010KT M01/M05 A303 RMK A01 T10101047  RH  076%=      5-min Rain = 0
KCES 080825Z 03010KT M01/M05 A303 RMK A01 T10101046  RH  077%=      5-min Rain = 0
KCES 080830Z 02009KT M01/M05 A303 RMK A01 T10101047  RH  076%=      5-min Rain = 0
KCES 080835Z 02009KT M01/M05 A303 RMK A01 T10091046  RH  077%=      5-min Rain = 0
KCES 080840Z 02009KT M01/M05 A3029 RMK A01 T10091046  RH  077%=      5-min Rain = 0
KCES 080845Z 02010KT M01/M05 A3029 RMK A01 T10101047  RH  076%=      5-min Rain = 0
KCES 080850Z 02011KT M01/M05 A3029 RMK A01 T10101048  RH  076%=      5-min Rain = 0
KCES 080855Z 03011KT M01/M05 A3029 RMK A01 T10111050  RH  075%=      5-min Rain = 0
KCES 080900Z 03010KT M01/M05 A3029 RMK A01 T10111050  RH  075%=      5-min Rain = 0
KCES 080905Z 03009KT M01/M05 A3029 RMK A01 T10121048  RH  076%=      5-min Rain = 0
KCES 080910Z 02009KT M01/M05 A3029 RMK A01 T10121047  RH  077%=      5-min Rain = 0
KCES 080915Z 02009KT M01/M05 A3028 RMK A01 T10131046  RH  078%=      5-min Rain = 0
KCES 080920Z 02009KT M01/M05 A3029 RMK A01 T10131046  RH  079%=      5-min Rain = 0
KCES 080925Z 02008KT M01/M05 A3029 RMK A01 T10131045  RH  080%=      5-min Rain = 0
KCES 080930Z 02008KT M01/M04 A3029 RMK A01 T10141042  RH  081%=      5-min Rain = 0
KCES 080935Z 03009KT M02/M04 A3028 RMK A01 T10151043  RH  081%=      5-min Rain = 0
KCES 080940Z 03009KT M02/M04 A3028 RMK A01 T10151042  RH  082%=      5-min Rain = 0
KCES 080945Z 02008KT M02/M04 A3028 RMK A01 T10161042  RH  083%=      5-min Rain = 0
KCES 080950Z 02008KT M02/M04 A3028 RMK A01 T10161041  RH  083%=      5-min Rain = 0
KCES 080955Z 02007KT M02/M04 A3028 RMK A01 T10151041  RH  083%=      5-min Rain = 0
KCES 081000Z 02007KT M02/M04 A3028 RMK A01 T10151041  RH  083%=      5-min Rain = 0
KCES 081005Z 03007KT M02/M04 A3028 RMK A01 T10151042  RH  082%=      5-min Rain = 0
KCES 081010Z 02006KT M01/M04 A3028 RMK A01 T10141041  RH  082%=      5-min Rain = 0
KCES 081015Z 03005KT M01/M04 A3028 RMK A01 T10141041  RH  082%=      5-min Rain = 0
KCES 081020Z 02007KT M01/M04 A3028 RMK A01 T10131044  RH  080%=      5-min Rain = 0
KCES 081025Z 02008KT M01/M05 A3028 RMK A01 T10131045  RH  079%=      5-min Rain = 0
KCES 081030Z 02008KT M01/M05 A3027 RMK A01 T10131048  RH  077%=      5-min Rain = 0
KCES 081035Z 03008KT M01/M05 A3027 RMK A01 T10131048  RH  077%=      5-min Rain = 0
KCES 081040Z 03008KT M01/M05 A3027 RMK A01 T10121049  RH  076%=      5-min Rain = 0
KCES 081045Z 03008KT M01/M05 A3027 RMK A01 T10121049  RH  076%=      5-min Rain = 0
KCES 081050Z 03007KT M01/M05 A3027 RMK A01 T10121048  RH  077%=      5-min Rain = 0
KCES 081055Z 03007KT M01/M05 A3027 RMK A01 T10121048  RH  077%=      5-min Rain = 0
KCES 081100Z 03007KT M01/M05 A3027 RMK A01 T10121048  RH  077%=      5-min Rain = 0
KCES 081105Z 03007KT M01/M05 A3027 RMK A01 T10121048  RH  077%=      5-min Rain = 0
KCES 081110Z 02007KT M01/M05 A3027 RMK A01 T10121049  RH  076%=      5-min Rain = 0
KCES 081115Z 02007KT M01/M05 A3027 RMK A01 T10111048  RH  077%=      5-min Rain = 0
KCES 081120Z 03007KT M01/M05 A3027 RMK A01 T10111047  RH  077%=      5-min Rain = 0
KCES 081125Z 03006KT M01/M05 A3027 RMK A01 T10111046  RH  077%=      5-min Rain = 0
KCES 081130Z 02006KT M01/M05 A3027 RMK A01 T10111046  RH  077%=      5-min Rain = 0
KCES 081135Z 02007KT M01/M05 A3027 RMK A01 T10111047  RH  077%=      5-min Rain = 0
KCES 081140Z 02007KT M01/M05 A3028 RMK A01 T10111047  RH  076%=      5-min Rain = 0
KCES 081145Z 02007KT M01/M05 A3028 RMK A01 T10101047  RH  076%=      5-min Rain = 0
KCES 081150Z 02008KT M01/M05 A3028 RMK A01 T10101048  RH  076%=      5-min Rain = 0
KCES 081155Z 03008KT M01/M05 A3028 RMK A01 T10101048  RH  075%=      5-min Rain = 0
KCES 081200Z 03008KT M01/M05 A3028 RMK A01 T10101049  RH  075%=      5-min Rain = 0
KCES 081205Z 03008KT M01/M05 A3028 RMK A01 T10101051  RH  074%=      5-min Rain = 0
KCES 081210Z 02008KT M01/M05 A3028 RMK A01 T10101051  RH  074%=      5-min Rain = 0
KCES 081215Z 02007KT M01/M05 A3029 RMK A01 T10101051  RH  074%=      5-min Rain = 0
KCES 081220Z 03008KT M01/M05 A3029 RMK A01 T10101050  RH  075%=      5-min Rain = 0
KCES 081225Z 02008KT M01/M05 A3029 RMK A01 T10101049  RH  075%=      5-min Rain = 0
KCES 081230Z 02009KT M01/M05 A3029 RMK A01 T10101050  RH  075%=      5-min Rain = 0
KCES 081235Z 02009KT M01/M05 A3029 RMK A01 T10101050  RH  075%=      5-min Rain = 0
KCES 081240Z 02008KT M01/M05 A3029 RMK A01 T10101050  RH  075%=      5-min Rain = 0
KCES 081245Z 02008KT M01/M05 A3029 RMK A01 T10101049  RH  075%=      5-min Rain = 0
KCES 081250Z 02009KT M01/M05 A3029 RMK A01 T10101048  RH  076%=      5-min Rain = 0
KCES 081255Z 02009KT M01/M05 A3028 RMK A01 T10101047  RH  076%=      5-min Rain = 0
KCES 081300Z 02009KT M01/M05 A3029 RMK A01 T10101046  RH  077%=      5-min Rain = 0
KCES 081305Z 02009KT M01/M05 A3029 RMK A01 T10101046  RH  077%=      5-min Rain = 0
KCES 081310Z 02009KT M01/M05 A3029 RMK A01 T10111045  RH  078%=      5-min Rain = 0
KCES 081315Z 02010KT M01/M05 A3029 RMK A01 T10111045  RH  078%=      5-min Rain = 0
KCES 081320Z 02008KT M01/M04 A3029 RMK A01 T10101044  RH  078%=      5-min Rain = 0
KCES 081325Z 02008KT M01/M04 A3029 RMK A01 T10111044  RH  078%=      5-min Rain = 0
KCES 081330Z 02008KT M01/M05 A3029 RMK A01 T10111045  RH  078%=      5-min Rain = 0
KCES 081335Z 02007KT M01/M04 A3029 RMK A01 T10111044  RH  078%=      5-min Rain = 0
KCES 081340Z 02007KT M01/M05 A3029 RMK A01 T10111045  RH  078%=      5-min Rain = 0
KCES 081345Z 02009KT M01/M05 A3029 RMK A01 T10111048  RH  076%=      5-min Rain = 0
KCES 081350Z 02008KT M01/M05 A303 RMK A01 T10111051  RH  075%=      5-min Rain = 0
KCES 081355Z 02008KT M01/M05 A303 RMK A01 T10111051  RH  074%=      5-min Rain = 0
KCES 081400Z 02007KT M01/M05 A303 RMK A01 T10111051  RH  074%=      5-min Rain = 0
KCES 081405Z 02008KT M01/M05 A303 RMK A01 T10101051  RH  074%=      5-min Rain = 0
KCES 081410Z 01009KT M01/M05 A303 RMK A01 T10111053  RH  073%=      5-min Rain = 0
KCES 081415Z 01008KT M01/M05 A303 RMK A01 T10111054  RH  073%=      5-min Rain = 0
KCES 081420Z 01006KT M01/M05 A303 RMK A01 T10101052  RH  073%=      5-min Rain = 0
KCES 081425Z 01007KT M01/M05 A303 RMK A01 T10101052  RH  073%=      5-min Rain = 0
KCES 081430Z 01007KT M01/M05 A303 RMK A01 T10101053  RH  073%=      5-min Rain = 0
KCES 081435Z 00006KT M01/M05 A303 RMK A01 T10091050  RH  074%=      5-min Rain = 0
KCES 081440Z 01008KT M01/M06 A3031 RMK A01 T10091055  RH  071%=      5-min Rain = 0
KCES 081445Z 01008KT M01/M06 A3031 RMK A01 T10091064  RH  066%=      5-min Rain = 0
KCES 081450Z 03008KT M01/M06 A3031 RMK A01 T10081064  RH  066%=      5-min Rain = 0
KCES 081455Z 03009KT M01/M07 A3031 RMK A01 T10081071  RH  062%=      5-min Rain = 0
KCES 081500Z 03010KT M01/M08 A3031 RMK A01 T10081075  RH  060%=      5-min Rain = 0
KCES 081505Z 03009KT M01/M08 A3032 RMK A01 T10081078  RH  059%=      5-min Rain = 0
KCES 081510Z 03009KT M01/M08 A3032 RMK A01 T10081077  RH  059%=      5-min Rain = 0
KCES 081515Z 03009KT M01/M08 A3032 RMK A01 T10081078  RH  059%=      5-min Rain = 0
KCES 081520Z 03008KT M01/M08 A3032 RMK A01 T10081077  RH  059%=      5-min Rain = 0
KCES 081525Z 03008KT M01/M08 A3032 RMK A01 T10071076  RH  060%=      5-min Rain = 0
KCES 081530Z 02008KT M01/M08 A3032 RMK A01 T10071079  RH  058%=      5-min Rain = 0
KCES 081535Z 02008KT M01/M08 A3032 RMK A01 T10071078  RH  059%=      5-min Rain = 0
KCES 081540Z 02007KT M01/M08 A3032 RMK A01 T10061078  RH  058%=      5-min Rain = 0
KCES 081545Z 02008KT M01/M08 A3032 RMK A01 T10061080  RH  058%=      5-min Rain = 0
KCES 081550Z 02009KT M01/M08 A3033 RMK A01 T10051079  RH  058%=      5-min Rain = 0
KCES 081555Z 01008KT M01/M08 A3033 RMK A01 T10051080  RH  057%=      5-min Rain = 0
KCES 081600Z 02008KT M01/M08 A3033 RMK A01 T10051080  RH  057%=      5-min Rain = 0
KCES 081605Z 01008KT M00/M08 A3033 RMK A01 T10041080  RH  056%=      5-min Rain = 0
KCES 081610Z 01009KT M00/M08 A3033 RMK A01 T10041082  RH  055%=      5-min Rain = 0
KCES 081615Z 02008KT M00/M08 A3033 RMK A01 T10031083  RH  055%=      5-min Rain = 0
KCES 081620Z 01009KT M00/M09 A3033 RMK A01 T10031085  RH  054%=      5-min Rain = 0
KCES 081625Z 02009KT M00/M08 A3033 RMK A01 T10031084  RH  054%=      5-min Rain = 0
KCES 081630Z 02008KT M00/M08 A3033 RMK A01 T10021084  RH  054%=      5-min Rain = 0
KCES 081635Z 02009KT M00/M09 A3033 RMK A01 T10011087  RH  053%=      5-min Rain = 0
KCES 081640Z 01008KT M00/M09 A3033 RMK A01 T10021087  RH  052%=      5-min Rain = 0
KCES 081645Z 02008KT M00/M09 A3033 RMK A01 T10011086  RH  053%=      5-min Rain = 0
KCES 081650Z 01008KT M00/M08 A3033 RMK A01 T10011084  RH  054%=      5-min Rain = 0
KCES 081655Z 02008KT 00/09 A3033 RMK A01 T00-00-86  RH  053%=      5-min Rain = 0
KCES 081700Z 02008KT 00/09 A3033 RMK A01 T00-00-85  RH  053%=      5-min Rain = 0
KCES 081705Z 03008KT 00/M08 A3033 RMK A01 T00011084  RH  053%=      5-min Rain = 0
KCES 081710Z 01008KT 00/M08 A3033 RMK A01 T00031080  RH  053%=      5-min Rain = 0
KCES 081715Z 02008KT 01/M08 A3033 RMK A01 T00051082  RH  052%=      5-min Rain = 0
KCES 081720Z 03008KT 01/M08 A3033 RMK A01 T00051080  RH  053%=      5-min Rain = 0
KCES 081725Z 03008KT 01/M08 A3032 RMK A01 T00051083  RH  052%=      5-min Rain = 0
KCES 081730Z 02007KT 01/M08 A3032 RMK A01 T00061079  RH  053%=      5-min Rain = 0
KCES 081735Z 03007KT 01/M08 A3032 RMK A01 T00091080  RH  051%=      5-min Rain = 0
KCES 081740Z 03008KT 01/M08 A3032 RMK A01 T00091083  RH  050%=      5-min Rain = 0
KCES 081745Z 02008KT 01/M08 A3032 RMK A01 T00091084  RH  050%=      5-min Rain = 0
KCES 081750Z 01008KT 01/M09 A3032 RMK A01 T00071087  RH  049%=      5-min Rain = 0
KCES 081755Z 03008KT 01/M08 A3032 RMK A01 T00091084  RH  050%=      5-min Rain = 0
KCES 081800Z 03007KT 01/M09 A3032 RMK A01 T00091086  RH  049%=      5-min Rain = 0
KCES 081805Z 02006KT 01/M08 A3031 RMK A01 T00101083  RH  050%=      5-min Rain = 0
KCES 081810Z 00005KT 01/M08 A3031 RMK A01 T00111083  RH  049%=      5-min Rain = 0
KCES 081815Z 01006KT 01/M08 A3031 RMK A01 T00111082  RH  050%=      5-min Rain = 0
KCES 081820Z 03005KT 01/M08 A303 RMK A01 T00121081  RH  050%=      5-min Rain = 0
KCES 081825Z 01006KT 01/M08 A303 RMK A01 T00141080  RH  049%=      5-min Rain = 0
KCES 081830Z 00005KT 01/M08 A303 RMK A01 T00141083  RH  048%=      5-min Rain = 0
KCES 081835Z 02006KT 02/M08 A303 RMK A01 T00151082  RH  048%=      5-min Rain = 0
KCES 081840Z 03006KT 02/M09 A3029 RMK A01 T00161085  RH  047%=      5-min Rain = 0
KCES 081845Z 04005KT 02/M09 A3029 RMK A01 T00171086  RH  046%=      5-min Rain = 0
KCES 081850Z 02005KT 02/M09 A3029 RMK A01 T00181088  RH  045%=      5-min Rain = 0
KCES 081855Z 36005KT 02/M09 A3029 RMK A01 T00181087  RH  045%=      5-min Rain = 0
KCES 081900Z 35005KT 02/M09 A3029 RMK A01 T00201085  RH  046%=      5-min Rain = 0
KCES 081905Z 35005KT 02/M09 A3029 RMK A01 T00211087  RH  045%=      5-min Rain = 0
KCES 081910Z 34005KT 02/M09 A3028 RMK A01 T00211085  RH  045%=      5-min Rain = 0
KCES 081915Z 01005KT 02/M09 A3028 RMK A01 T00231087  RH  044%=      5-min Rain = 0
KCES 081920Z 35004KT 02/M09 A3028 RMK A01 T00231087  RH  044%=      5-min Rain = 0
KCES 081925Z 01006KT 02/M09 A3028 RMK A01 T00241085  RH  044%=      5-min Rain = 0
KCES 081930Z 36004KT 03/M09 A3028 RMK A01 T00251085  RH  044%=      5-min Rain = 0
KCES 081935Z 02005KT 03/M09 A3028 RMK A01 T00261087  RH  043%=      5-min Rain = 0
KCES 081940Z 03005KT 03/M08 A3028 RMK A01 T00271084  RH  044%=      5-min Rain = 0
KCES 081945Z 36005KT 03/M08 A3027 RMK A01 T00281082  RH  044%=      5-min Rain = 0
KCES 081950Z 03006KT 03/M08 A3027 RMK A01 T00311079  RH  044%=      5-min Rain = 0
KCES 081955Z 03006KT 03/M08 A3027 RMK A01 T00321080  RH  044%=      5-min Rain = 0
KCES 082000Z 01005KT 03/M08 A3026 RMK A01 T00321081  RH  043%=      5-min Rain = 0
KCES 082005Z 02006KT 03/M08 A3026 RMK A01 T00331079  RH  043%=      5-min Rain = 0
KCES 082010Z 35007KT 03/M08 A3026 RMK A01 T00331080  RH  043%=      5-min Rain = 0
KCES 082015Z 02006KT 03/M07 A3026 RMK A01 T00321074  RH  045%=      5-min Rain = 0
KCES 082020Z 02006KT 03/M08 A3026 RMK A01 T00331076  RH  045%=      5-min Rain = 0
KCES 082025Z 00006KT 03/M08 A3026 RMK A01 T00331078  RH  044%=      5-min Rain = 0
KCES 082030Z 02004KT 03/M08 A3026 RMK A01 T00311079  RH  044%=      5-min Rain = 0
KCES 082035Z 01004KT 03/M08 A3025 RMK A01 T00321076  RH  045%=      5-min Rain = 0
KCES 082040Z 01004KT 03/M07 A3025 RMK A01 T00331073  RH  046%=      5-min Rain = 0
KCES 082045Z 01005KT 03/M07 A3025 RMK A01 T00341071  RH  046%=      5-min Rain = 0
KCES 082050Z 00005KT 03/M07 A3025 RMK A01 T00341070  RH  047%=      5-min Rain = 0
KCES 082055Z 01005KT 03/M07 A3025 RMK A01 T00341068  RH  047%=      5-min Rain = 0
KCES 082100Z 02005KT 04/M07 A3025 RMK A01 T00351066  RH  047%=      5-min Rain = 0
KCES 082105Z 00006KT 04/M07 A3024 RMK A01 T00371066  RH  047%=      5-min Rain = 0
KCES 082110Z 36004KT 04/M07 A3024 RMK A01 T00361067  RH  047%=      5-min Rain = 0
KCES 082115Z 00006KT 04/M06 A3024 RMK A01 T00361061  RH  049%=      5-min Rain = 0
KCES 082120Z 01004KT 04/M06 A3024 RMK A01 T00381059  RH  049%=      5-min Rain = 0
KCES 082125Z 02004KT 04/M06 A3024 RMK A01 T00381061  RH  048%=      5-min Rain = 0
KCES 082130Z 00004KT 04/M06 A3024 RMK A01 T00391060  RH  048%=      5-min Rain = 0
KCES 082135Z 36004G9KT 04/M06 A3024 RMK A01 T00391061  RH  048%=      5-min Rain = 0
KCES 082140Z 02006KT 04/M06 A3024 RMK A01 T00411058  RH  048%=      5-min Rain = 0
KCES 082145Z 02006KT 04/M06 A3024 RMK A01 T00421058  RH  048%=      5-min Rain = 0
KCES 082150Z 01005KT 04/M06 A3024 RMK A01 T00411057  RH  049%=      5-min Rain = 0
KCES 082155Z 01005KT 04/M05 A3024 RMK A01 T00401054  RH  051%=      5-min Rain = 0
KCES 082200Z 02004KT 04/M05 A3024 RMK A01 T00391054  RH  051%=      5-min Rain = 0
KCES 082205Z 01005KT 04/M06 A3024 RMK A01 T00401057  RH  049%=      5-min Rain = 0
KCES 082210Z 01006KT 04/M06 A3024 RMK A01 T00411056  RH  049%=      5-min Rain = 0
KCES 082215Z 02005KT 04/M05 A3024 RMK A01 T00401054  RH  050%=      5-min Rain = 0
KCES 082220Z 01004KT 04/M05 A3024 RMK A01 T00401052  RH  051%=      5-min Rain = 0
KCES 082225Z 02004KT 04/M05 A3024 RMK A01 T00401053  RH  051%=      5-min Rain = 0
KCES 082230Z 01003KT 04/M05 A3024 RMK A01 T00411053  RH  050%=      5-min Rain = 0
KCES 082235Z 01004KT 04/M06 A3024 RMK A01 T00411056  RH  049%=      5-min Rain = 0
KCES 082240Z 01005KT 04/M06 A3024 RMK A01 T00401055  RH  050%=      5-min Rain = 0
KCES 082245Z 36004KT 04/M05 A3024 RMK A01 T00401053  RH  051%=      5-min Rain = 0
KCES 082250Z 35003KT 04/M05 A3024 RMK A01 T00391054  RH  051%=      5-min Rain = 0
KCES 082255Z 01003KT 04/M05 A3024 RMK A01 T00391053  RH  051%=      5-min Rain = 0
KCES 082300Z 01004KT 04/M05 A3024 RMK A01 T00381053  RH  051%=      5-min Rain = 0
KCES 082305Z 00003KT 04/M05 A3024 RMK A01 T00371054  RH  052%=      5-min Rain = 0
KCES 082310Z 00002KT 04/M05 A3024 RMK A01 T00351054  RH  052%=      5-min Rain = 0
KCES 082315Z 35002KT 03/M06 A3024 RMK A01 T00341056  RH  052%=      5-min Rain = 0
KCES 082320Z 35002KT 03/M06 A3024 RMK A01 T00321057  RH  052%=      5-min Rain = 0
KCES 082325Z 00002KT 03/M06 A3024 RMK A01 T00301057  RH  053%=      5-min Rain = 0
KCES 082330Z 36002KT 03/M06 A3025 RMK A01 T00271058  RH  054%=      5-min Rain = 0
KCES 082335Z 34002KT 02/M06 A3025 RMK A01 T00221058  RH  056%=      5-min Rain = 0
KCES 082340Z 33002KT 02/M06 A3025 RMK A01 T00151058  RH  059%=      5-min Rain = 0
KCES 082345Z 32003KT 01/M06 A3025 RMK A01 T00081057  RH  062%=      5-min Rain = 0
KCES 082350Z 33003KT 00/M06 A3025 RMK A01 T00021058  RH  064%=      5-min Rain = 0
KCES 082355Z 33003KT M00/M06 A3025 RMK A01 T10021059  RH  066%=      5-min Rain = 0
KCES 090000Z 34003KT M01/M06 A3025 RMK A01 T10051058  RH  068%=      5-min Rain = 0
KCES 090005Z 33002KT M01/M06 A3025 RMK A01 T10071057  RH  069%=      5-min Rain = 0
KCES 090010Z 33003KT M01/M06 A3025 RMK A01 T10091056  RH  070%=      5-min Rain = 0
KCES 090015Z 32005KT M01/M06 A3025 RMK A01 T10111056  RH  072%=      5-min Rain = 0
KCES 090020Z 33006KT M01/M06 A3025 RMK A01 T10141056  RH  073%=      5-min Rain = 0
KCES 090025Z 33006KT M01/M05 A3025 RMK A01 T10131054  RH  074%=      5-min Rain = 0
KCES 090030Z 33006KT M02/M06 A3026 RMK A01 T10171057  RH  074%=      5-min Rain = 0
KCES 090035Z 33007KT M02/M06 A3026 RMK A01 T10201057  RH  076%=      5-min Rain = 0
KCES 090040Z 33006KT M02/M06 A3026 RMK A01 T10221058  RH  077%=      5-min Rain = 0
KCES 090045Z 32004KT M02/M06 A3026 RMK A01 T10231057  RH  078%=      5-min Rain = 0
KCES 090050Z 32004KT M02/M05 A3026 RMK A01 T10211054  RH  079%=      5-min Rain = 0
KCES 090055Z 35003KT M02/M05 A3026 RMK A01 T10181051  RH  078%=      5-min Rain = 0
KCES 090100Z 03003KT M01/M05 A3026 RMK A01 T10131050  RH  077%=      5-min Rain = 0
KCES 090105Z 01002KT M01/M05 A3027 RMK A01 T10111051  RH  075%=      5-min Rain = 0
KCES 090110Z 00002KT M01/M05 A3027 RMK A01 T10131054  RH  074%=      5-min Rain = 0
KCES 090115Z 35002KT M02/M06 A3027 RMK A01 T10161056  RH  074%=      5-min Rain = 0
KCES 090120Z 35002KT M02/M06 A3027 RMK A01 T10191057  RH  076%=      5-min Rain = 0
KCES 090125Z 33002KT M02/M06 A3027 RMK A01 T10231059  RH  077%=      5-min Rain = 0
KCES 090130Z 36002KT M02/M06 A3028 RMK A01 T10241057  RH  079%=      5-min Rain = 0
KCES 090135Z 34002KT M03/M06 A3028 RMK A01 T10251056  RH  079%=      5-min Rain = 0
KCES 090140Z 34001KT M03/M06 A3028 RMK A01 T10271058  RH  079%=      5-min Rain = 0
KCES 090145Z 33001KT M03/M06 A3028 RMK A01 T10291059  RH  080%=      5-min Rain = 0
KCES 090150Z 33001KT M03/M06 A3028 RMK A01 T10281057  RH  081%=      5-min Rain = 0
KCES 090155Z 34002KT M03/M06 A3028 RMK A01 T10291057  RH  081%=      5-min Rain = 0
KCES 090200Z 34002KT M03/M06 A3028 RMK A01 T10301058  RH  081%=      5-min Rain = 0
KCES 090205Z 32002KT M03/M06 A3028 RMK A01 T10331062  RH  081%=      5-min Rain = 0
KCES 090210Z 32002KT M04/M06 A3028 RMK A01 T10361062  RH  082%=      5-min Rain = 0
KCES 090215Z 32002KT M04/M06 A3028 RMK A01 T10351060  RH  083%=      5-min Rain = 0
KCES 090220Z 31001KT M04/M06 A3028 RMK A01 T10351060  RH  083%=      5-min Rain = 0
KCES 090225Z 32001KT M03/M06 A3028 RMK A01 T10341059  RH  083%=      5-min Rain = 0
KCES 090230Z 32001KT M03/M06 A3028 RMK A01 T10331058  RH  083%=      5-min Rain = 0
KCES 090235Z 31001KT M03/M06 A3028 RMK A01 T10341060  RH  082%=      5-min Rain = 0
KCES 090240Z 31002KT M04/M06 A3028 RMK A01 T10351061  RH  082%=      5-min Rain = 0
KCES 090245Z 30001KT M04/M06 A3028 RMK A01 T10351061  RH  082%=      5-min Rain = 0
KCES 090250Z 30001KT M04/M06 A3028 RMK A01 T10361062  RH  082%=      5-min Rain = 0
KCES 090255Z 32001KT M04/M06 A3028 RMK A01 T10351062  RH  082%=      5-min Rain = 0
KCES 090300Z 33001KT M04/M06 A3028 RMK A01 T10351063  RH  082%=      5-min Rain = 0
KCES 090305Z 32001KT M04/M06 A3028 RMK A01 T10351063  RH  082%=      5-min Rain = 0
KCES 090310Z 33001KT M04/M06 A3029 RMK A01 T10361063  RH  082%=      5-min Rain = 0
KCES 090315Z 32001KT M04/M06 A3029 RMK A01 T10361064  RH  081%=      5-min Rain = 0
KCES 090320Z 32001KT M04/M07 A3029 RMK A01 T10391066  RH  082%=      5-min Rain = 0
KCES 090325Z 33001KT M04/M06 A3029 RMK A01 T10381064  RH  082%=      5-min Rain = 0
KCES 090330Z 33001KT M04/M06 A3029 RMK A01 T10361063  RH  082%=      5-min Rain = 0
KCES 090335Z 35001KT M04/M06 A3029 RMK A01 T10351063  RH  081%=      5-min Rain = 0
KCES 090340Z 35000KT M04/M07 A3029 RMK A01 T10351065  RH  080%=      5-min Rain = 0
KCES 090345Z 29001KT M04/M08 A3029 RMK A01 T10431076  RH  078%=      5-min Rain = 0
KCES 090350Z 17000KT M05/M08 A3029 RMK A01 T10531082  RH  080%=      5-min Rain = 0
KCES 090355Z 33000KT M06/M08 A3029 RMK A01 T10591083  RH  083%=      5-min Rain = 0
KCES 090400Z 35001KT M06/M08 A3029 RMK A01 T10551075  RH  086%=      5-min Rain = 0
KCES 090405Z 35001KT M05/M07 A3028 RMK A01 T10511071  RH  086%=      5-min Rain = 0
KCES 090410Z 00001KT M05/M07 A3028 RMK A01 T10501071  RH  085%=      5-min Rain = 0
KCES 090415Z 01001KT M05/M07 A3029 RMK A01 T10521073  RH  085%=      5-min Rain = 0
KCES 090420Z 34001KT M06/M08 A3029 RMK A01 T10551078  RH  084%=      5-min Rain = 0
KCES 090425Z 35002KT M06/M09 A3029 RMK A01 T10631086  RH  084%=      5-min Rain = 0
KCES 090430Z 35002KT M06/M08 A3029 RMK A01 T10591078  RH  086%=      5-min Rain = 0
KCES 090435Z 34002KT M06/M08 A3029 RMK A01 T10601081  RH  085%=      5-min Rain = 0
KCES 090440Z 33002KT M06/M08 A303 RMK A01 T10611080  RH  086%=      5-min Rain = 0
KCES 090445Z 34002KT M06/M08 A303 RMK A01 T10591078  RH  086%=      5-min Rain = 0
KCES 090450Z 34003KT M05/M07 A303 RMK A01 T10541073  RH  086%=      5-min Rain = 0
KCES 090455Z 33001KT M05/M07 A303 RMK A01 T10501074  RH  083%=      5-min Rain = 0
KCES 090500Z 33001KT M05/M08 A303 RMK A01 T10511077  RH  082%=      5-min Rain = 0
KCES 090505Z 33001KT M05/M08 A303 RMK A01 T10521078  RH  082%=      5-min Rain = 0
KCES 090510Z 33000KT M05/M08 A303 RMK A01 T10501077  RH  081%=      5-min Rain = 0
KCES 090515Z 33001KT M05/M08 A3031 RMK A01 T10481077  RH  080%=      5-min Rain = 0
KCES 090520Z 33001KT M05/M08 A3031 RMK A01 T10491078  RH  079%=      5-min Rain = 0
KCES 090525Z 27000KT M05/M08 A3031 RMK A01 T10521083  RH  079%=      5-min Rain = 0
KCES 090530Z 27001KT M06/M08 A3031 RMK A01 T10571083  RH  082%=      5-min Rain = 0
KCES 090535Z 33001KT M06/M08 A3031 RMK A01 T10551080  RH  083%=      5-min Rain = 0
KCES 090540Z 36002KT M05/M08 A3031 RMK A01 T10521077  RH  083%=      5-min Rain = 0
KCES 090545Z 00002KT M05/M08 A3031 RMK A01 T10511080  RH  080%=      5-min Rain = 0
KCES 090550Z 00002KT M06/M09 A3031 RMK A01 T10581092  RH  077%=      5-min Rain = 0
KCES 090555Z 00003KT M07/M10 A3031 RMK A01 T10651095  RH  079%=      5-min Rain = 0

Page generated in 0.0092 seconds.